METAR AND TAF INFORMATION
METAR FOR EDDN
ADDS - METARS form results

(2313 UTC 22 May 2018)
Data provider http://aviationweather.gov/adds/metars/
 
METAR text: EDDN 222250Z 09006KT CAVOK 18/08 Q1013
Conditions at: EDDN (NUERNBERG , DE) observed 2250 UTC 22 May 2018
Temperature: 18.0°C (64°F)
Dewpoint: 8.0°C (46°F) [RH = 52%]
Pressure (altimeter): 29.91 inches Hg (1013.0 mb)
Winds: from the E (90 degrees) at 7 MPH (6 knots; 3.1 m/s)
Visibility: 6 or more miles (10+ km)
Ceiling: ceiling and visibility are OK
Clouds: unknown
Weather: no significant weather observed at this time

METAR text: EDDN 222220Z 07006KT CAVOK 19/08 Q1013
Conditions at: EDDN (NUERNBERG , DE) observed 2220 UTC 22 May 2018
Temperature: 19.0°C (66°F)
Dewpoint: 8.0°C (46°F) [RH = 49%]
Pressure (altimeter): 29.91 inches Hg (1013.0 mb)
Winds: from the ENE (70 degrees) at 7 MPH (6 knots; 3.1 m/s)
Visibility: 6 or more miles (10+ km)
Ceiling: ceiling and visibility are OK
Clouds: unknown
Weather: no significant weather observed at this time

Forecast for: EDDN (NUERNBERG , DE)
Text: TAF EDDN 221700Z 2218/2318 04003KT CAVOK
Forecast period: 1800 UTC 22 May 2018 to 0600 UTC 23 May 2018
Forecast type: FROM: standard forecast or significant change
Winds: from the NE (40 degrees) at 3 MPH (3 knots; 1.6 m/s)
Visibility: 6 or more miles (10+ km)
Clouds: not forecast
Weather: NSW  (no significant weather)
Forecast for: EDDN (NUERNBERG , DE)
Text: TAF EDDN 221700Z 2218/2318 04003KT CAVOK
Forecast period: 1800 UTC 22 May 2018 to 0600 UTC 23 May 2018
Forecast type: FROM: standard forecast or significant change
Winds: from the NE (40 degrees) at 3 MPH (3 knots; 1.6 m/s)
Visibility: 6 or more miles (10+ km)
Clouds: not forecast
Weather: NSW  (no significant weather)
Forecast for: EDDN (NUERNBERG , DE)
Text: TAF EDDN 221700Z 2218/2318 04003KT CAVOK
Forecast period: 0600 to 1800 UTC 23 May 2018
Forecast type: BECOMING: Conditions expected to become as follows by 0800 UTC 23 May 2018
Winds: from the ENE (70 degrees) at 9 MPH (8 knots; 4.2 m/s)
Visibility: 6 or more miles (10+ km)
Weather: NSW  (no significant weather)
Forecast for: EDDN (NUERNBERG , DE)
Text: TAF EDDN 221700Z 2218/2318 04003KT CAVOK
Forecast period: 0600 to 1800 UTC 23 May 2018
Forecast type: BECOMING: Conditions expected to become as follows by 0800 UTC 23 May 2018
Winds: from the ENE (70 degrees) at 9 MPH (8 knots; 4.2 m/s)
Visibility: 6 or more miles (10+ km)
Weather: NSW  (no significant weather)
Forecast for: EDDN (NUERNBERG , DE)
Text: TAF EDDN 221700Z 2218/2318 04003KT CAVOK
Forecast period: 1300 to 1800 UTC 23 May 2018
Forecast type: TEMPORARY: The following changes expected for less than half the time period
Winds: from the SSE (150 degrees) at 23 MPH (20 knots; 10.4 m/s)
gusting to 34 MPH (30 knots; 15.6 m/s)
Ceiling: 4000 feet AGL
Clouds: broken clouds at 4000 feet AGL
Weather: TSRA  (rain associated with thunderstorm(s))
Forecast for: EDDN (NUERNBERG , DE)
Text: TAF EDDN 221700Z 2218/2318 04003KT CAVOK
Forecast period: 1300 to 1800 UTC 23 May 2018
Forecast type: TEMPORARY: The following changes expected for less than half the time period
Winds: from the SSE (150 degrees) at 23 MPH (20 knots; 10.4 m/s)
gusting to 34 MPH (30 knots; 15.6 m/s)
Ceiling: 4000 feet AGL
Clouds: broken clouds at 4000 feet AGL
Weather: TSRA  (rain associated with thunderstorm(s))

 AIRPORT MAP

 RUNWAY INFORMATION
Runway 10 Runway length 8858 ft Runway width 148 ft
Runway elevation 1022 ft Runway displaced threshold 0 ft Runway heading 99
Runway 28 Runway length 8858 ft Runway width 148 ft
Runway elevation 1046 ft Runway displaced threshold 0 ft Runway heading 279

 AIRPORT FREQUENCIES
Type AFIS Name MUNCHEN IN Frequency 120.65 MHZ
Type ATIS Name ATIS Frequency 123.075 MHZ
Type DIR Name DIR Frequency 119.475 MHZ
Type GND Name GND Frequency 118.1 MHZ
Type RDR Name MUNCHEN RA Frequency 118.975 MHZ
Type TWR Name TWR Frequency 118.3 MHZ

 AIRPORT NEAR NAVIGATION AIDS
Type DME Name Nurnberg Frequency 113100 KHZ
Type NDB Name Rothenbach Frequency 415 KHZ



Powered by Virtual Airlines Manager [v2.6.2]